createdAt,value
2019-02-24T00:00:40.181Z,2.90
2019-02-24T00:03:10.025Z,2.72
2019-02-24T00:05:38.428Z,2.72
2019-02-24T00:08:06.842Z,3.20
2019-02-24T00:10:35.325Z,3.90
2019-02-24T00:13:04.715Z,2.50
2019-02-24T00:15:33.296Z,3.08
2019-02-24T00:18:01.973Z,2.75
2019-02-24T00:20:30.398Z,2.92
2019-02-24T00:22:58.837Z,3.10
2019-02-24T00:25:27.266Z,3.08
2019-02-24T00:27:55.776Z,2.37
2019-02-24T00:30:24.231Z,2.75
2019-02-24T00:32:52.637Z,2.40
2019-02-24T00:35:21.074Z,2.62
2019-02-24T00:37:49.608Z,3.00
2019-02-24T00:40:18.039Z,3.00
2019-02-24T00:42:46.457Z,3.80
2019-02-24T00:45:14.945Z,2.75
2019-02-24T00:47:43.355Z,3.15
2019-02-24T00:50:11.860Z,2.65
2019-02-24T00:52:40.284Z,2.55
2019-02-24T00:55:08.722Z,3.10
2019-02-24T00:57:37.302Z,2.47
2019-02-24T01:00:09.089Z,2.17
2019-02-24T01:02:37.490Z,2.67
2019-02-24T01:05:07.505Z,2.87
2019-02-24T01:07:35.969Z,2.47
2019-02-24T01:10:06.913Z,2.72
2019-02-24T01:12:35.695Z,2.92
2019-02-24T01:15:05.957Z,3.00
2019-02-24T01:17:34.373Z,3.05
2019-02-24T01:20:02.874Z,2.58
2019-02-24T01:22:31.270Z,2.83
2019-02-24T01:24:59.709Z,2.42
2019-02-24T01:27:28.112Z,3.02
2019-02-24T01:29:56.573Z,3.00
2019-02-24T01:32:24.973Z,2.02
2019-02-24T01:34:53.378Z,2.70
2019-02-24T01:37:21.776Z,5.83
2019-02-24T01:42:38.257Z,2.60
2019-02-24T01:45:07.729Z,3.42
2019-02-24T01:47:36.558Z,2.80
2019-02-24T01:50:10.699Z,3.27
2019-02-24T01:52:39.186Z,2.72
2019-02-24T01:55:07.733Z,2.60
2019-02-24T01:57:36.923Z,3.10
2019-02-24T02:00:08.161Z,3.60
2019-02-24T02:02:36.570Z,2.40
2019-02-24T02:05:06.531Z,2.75
2019-02-24T02:07:34.938Z,3.40
2019-02-24T02:10:03.809Z,4.00
2019-02-24T02:12:32.210Z,2.80
2019-02-24T02:15:00.654Z,2.50
2019-02-24T02:17:29.082Z,3.17
2019-02-24T02:19:57.522Z,3.10
2019-02-24T02:22:25.927Z,2.65
2019-02-24T02:24:54.421Z,2.80
2019-02-24T02:27:22.824Z,2.80
2019-02-24T02:29:51.238Z,3.40
2019-02-24T02:32:19.715Z,3.55
2019-02-24T02:34:48.190Z,3.27
2019-02-24T02:37:16.594Z,2.77
2019-02-24T02:39:45.005Z,2.70
2019-02-24T02:42:13.442Z,2.85
2019-02-24T02:44:41.912Z,2.85
2019-02-24T02:47:10.401Z,3.15
2019-02-24T02:49:38.825Z,2.70
2019-02-24T02:52:07.309Z,3.00
2019-02-24T02:54:36.121Z,3.05
2019-02-24T02:57:04.538Z,2.80
2019-02-24T02:59:32.955Z,3.42
2019-02-24T03:02:01.388Z,2.60
2019-02-24T03:04:29.772Z,2.67
2019-02-24T03:07:16.032Z,3.08
2019-02-24T03:09:44.491Z,2.87
2019-02-24T03:12:12.954Z,10.20
2019-02-24T03:14:41.396Z,9.28
2019-02-24T03:17:09.826Z,3.80
2019-02-24T03:19:38.269Z,2.77
2019-02-24T03:22:06.693Z,2.60
2019-02-24T03:24:35.153Z,2.77
2019-02-24T03:27:03.706Z,2.80
2019-02-24T03:29:32.093Z,2.45
2019-02-24T03:32:00.499Z,3.70
2019-02-24T03:34:28.984Z,3.20
2019-02-24T03:36:57.392Z,3.17
2019-02-24T03:39:25.821Z,3.10
2019-02-24T03:41:54.297Z,3.10
2019-02-24T03:44:22.765Z,3.60
2019-02-24T03:46:51.181Z,3.55
2019-02-24T03:49:19.582Z,3.25
2019-02-24T03:51:48.050Z,2.95
2019-02-24T03:54:16.480Z,3.85
2019-02-24T03:56:44.899Z,2.58
2019-02-24T03:59:15.267Z,3.30
2019-02-24T04:01:43.981Z,3.47
2019-02-24T04:04:12.386Z,3.45
2019-02-24T04:06:40.895Z,3.00
2019-02-24T04:09:10.022Z,4.22
2019-02-24T04:11:38.531Z,3.10
2019-02-24T04:14:06.934Z,3.25
2019-02-24T04:16:35.390Z,3.10
2019-02-24T04:19:03.889Z,3.72
2019-02-24T04:21:32.653Z,2.62
2019-02-24T04:24:01.108Z,3.65
2019-02-24T04:26:29.593Z,3.30
2019-02-24T04:28:58.280Z,3.27
2019-02-24T04:31:26.725Z,3.33
2019-02-24T04:33:55.501Z,2.50
2019-02-24T04:36:23.899Z,3.33
2019-02-24T04:38:52.351Z,3.08
2019-02-24T04:41:21.035Z,3.10
2019-02-24T04:43:49.487Z,3.50
2019-02-24T04:46:17.917Z,3.40
2019-02-24T04:48:46.398Z,4.15
2019-02-24T04:51:14.830Z,3.65
2019-02-24T04:53:43.269Z,4.35
2019-02-24T04:56:11.690Z,2.90
2019-02-24T04:58:40.217Z,3.60
2019-02-24T05:01:08.642Z,3.00
2019-02-24T05:03:37.054Z,3.17
2019-02-24T05:06:05.508Z,2.37
2019-02-24T05:08:33.953Z,3.40
2019-02-24T05:11:02.378Z,3.10
2019-02-24T05:13:30.813Z,3.62
2019-02-24T05:15:59.251Z,3.30
2019-02-24T05:18:27.657Z,3.85
2019-02-24T05:20:56.842Z,3.02
2019-02-24T05:23:25.273Z,3.52
2019-02-24T05:25:53.668Z,3.65
2019-02-24T05:28:22.078Z,3.75
2019-02-24T05:30:50.768Z,3.42
2019-02-24T05:33:19.213Z,3.22
2019-02-24T05:35:47.643Z,3.37
2019-02-24T05:38:16.049Z,3.22
2019-02-24T05:40:50.188Z,2.77
2019-02-24T05:43:18.612Z,3.25
2019-02-24T05:45:47.021Z,3.75
2019-02-24T05:48:15.460Z,3.10
2019-02-24T05:50:43.860Z,2.80
2019-02-24T05:53:12.648Z,3.72
2019-02-24T05:55:41.054Z,3.35
2019-02-24T05:58:09.524Z,3.10
2019-02-24T06:00:37.947Z,4.10
2019-02-24T06:03:06.391Z,3.27
2019-02-24T06:05:34.822Z,3.72
2019-02-24T06:08:03.399Z,3.10
2019-02-24T06:10:31.805Z,4.33
2019-02-24T06:13:00.213Z,3.70
2019-02-24T06:15:28.605Z,3.80
2019-02-24T06:17:57.042Z,4.03
2019-02-24T06:20:25.448Z,3.05
2019-02-24T06:22:53.893Z,4.42
2019-02-24T06:25:22.314Z,4.00
2019-02-24T06:27:50.736Z,3.60
2019-02-24T06:30:19.162Z,3.25
2019-02-24T06:32:47.613Z,3.30
2019-02-24T06:35:16.062Z,3.45
2019-02-24T06:37:44.549Z,3.40
2019-02-24T06:40:13.053Z,2.92
2019-02-24T06:42:41.498Z,3.25
2019-02-24T06:45:10.629Z,3.22
2019-02-24T06:47:39.038Z,3.85
2019-02-24T06:50:10.641Z,4.05
2019-02-24T06:52:39.039Z,4.35
2019-02-24T06:55:08.693Z,3.67
2019-02-24T06:57:37.089Z,3.40
2019-02-24T07:00:14.208Z,4.40
2019-02-24T07:02:38.245Z,3.30
2019-02-24T07:05:08.280Z,4.10
2019-02-24T07:07:36.820Z,4.10
2019-02-24T07:10:06.884Z,4.15
2019-02-24T07:12:35.389Z,4.28
2019-02-24T07:15:06.242Z,4.25
2019-02-24T07:17:34.647Z,4.15
2019-02-24T07:20:03.702Z,3.35
2019-02-24T07:22:32.146Z,3.02
2019-02-24T07:25:00.562Z,3.30
2019-02-24T07:27:29.007Z,3.30
2019-02-24T07:29:57.412Z,3.45
2019-02-24T07:32:25.858Z,4.85
2019-02-24T07:34:54.302Z,3.85
2019-02-24T07:37:22.732Z,4.55
2019-02-24T07:39:51.171Z,3.60
2019-02-24T07:42:19.602Z,3.90
2019-02-24T07:44:48.118Z,4.15
2019-02-24T07:47:16.603Z,3.40
2019-02-24T07:49:45.094Z,4.25
2019-02-24T07:52:13.505Z,3.30
2019-02-24T07:54:41.986Z,4.55
2019-02-24T07:57:10.727Z,5.75
2019-02-24T07:59:39.183Z,3.90
2019-02-24T08:02:07.920Z,3.75
2019-02-24T08:04:36.338Z,2.65
2019-02-24T08:07:04.753Z,4.25
2019-02-24T08:09:33.462Z,3.47
2019-02-24T08:12:01.939Z,3.65
2019-02-24T08:14:30.388Z,4.05
2019-02-24T08:16:58.803Z,4.20
2019-02-24T08:19:27.193Z,4.25
2019-02-24T08:21:55.605Z,4.40
2019-02-24T08:24:24.001Z,4.35
2019-02-24T08:26:52.424Z,3.55
2019-02-24T08:29:20.822Z,4.85
2019-02-24T08:31:49.241Z,3.83
2019-02-24T08:34:17.641Z,4.45
2019-02-24T08:36:46.040Z,3.87
2019-02-24T08:39:14.439Z,4.40
2019-02-24T08:41:42.853Z,3.55
2019-02-24T08:44:11.276Z,3.50
2019-02-24T08:46:40.079Z,4.58
2019-02-24T08:49:08.771Z,4.05
2019-02-24T08:51:37.252Z,3.80
2019-02-24T08:54:05.648Z,3.87
2019-02-24T08:56:34.082Z,4.20
2019-02-24T08:59:02.469Z,4.17
2019-02-24T09:01:30.890Z,4.00
2019-02-24T09:03:59.278Z,4.17
2019-02-24T09:06:28.142Z,4.50
2019-02-24T09:08:56.534Z,3.98
2019-02-24T09:11:24.939Z,3.80
2019-02-24T09:13:53.361Z,3.58
2019-02-24T09:16:21.778Z,4.00
2019-02-24T09:18:50.174Z,3.45
2019-02-24T09:21:18.608Z,3.05
2019-02-24T09:23:47.168Z,4.12
2019-02-24T09:26:15.598Z,3.80
2019-02-24T09:28:43.993Z,3.20
2019-02-24T09:31:12.431Z,4.00
2019-02-24T09:33:40.855Z,4.03
2019-02-24T09:36:09.278Z,3.30
2019-02-24T09:38:37.709Z,4.22
2019-02-24T09:41:06.091Z,3.85
2019-02-24T09:43:34.533Z,3.87
2019-02-24T09:46:02.974Z,3.85
2019-02-24T09:48:31.381Z,6.22
2019-02-24T09:50:59.831Z,4.47
2019-02-24T09:53:28.581Z,3.80
2019-02-24T09:55:57.101Z,4.65
2019-02-24T09:58:25.516Z,3.40
2019-02-24T10:00:53.926Z,4.78
2019-02-24T10:03:22.338Z,3.55
2019-02-24T10:05:50.786Z,3.22
2019-02-24T10:08:19.235Z,4.37
2019-02-24T10:10:47.637Z,4.05
2019-02-24T10:13:16.381Z,4.50
2019-02-24T10:15:44.803Z,4.35
2019-02-24T10:18:13.374Z,4.15
2019-02-24T10:20:41.849Z,3.37
2019-02-24T10:23:10.291Z,3.65
2019-02-24T10:25:38.765Z,3.92
2019-02-24T10:28:07.575Z,3.35
2019-02-24T10:30:35.999Z,4.08
2019-02-24T10:33:04.412Z,3.80
2019-02-24T10:35:32.877Z,4.62
2019-02-24T10:38:01.289Z,4.25
2019-02-24T10:40:29.714Z,3.98
2019-02-24T10:42:58.100Z,4.03
2019-02-24T10:45:26.533Z,4.08
2019-02-24T10:47:55.041Z,4.67
2019-02-24T10:50:23.475Z,3.80
2019-02-24T10:52:51.866Z,3.95
2019-02-24T10:55:20.297Z,3.47
2019-02-24T10:57:48.935Z,3.20
2019-02-24T11:00:19.781Z,3.70
2019-02-24T11:02:48.176Z,3.40
2019-02-24T11:05:16.929Z,3.90
2019-02-24T11:07:45.468Z,3.87
2019-02-24T11:10:13.990Z,3.72
2019-02-24T11:12:42.386Z,4.28
2019-02-24T11:15:12.342Z,4.55
2019-02-24T11:17:40.750Z,3.62
2019-02-24T11:20:12.170Z,3.52
2019-02-24T11:22:40.923Z,4.15
2019-02-24T11:25:10.911Z,4.15
2019-02-24T11:27:39.349Z,4.22
2019-02-24T11:30:10.774Z,3.67
2019-02-24T11:32:39.172Z,4.00
2019-02-24T11:35:10.184Z,3.75
2019-02-24T11:37:38.623Z,3.33
2019-02-24T11:40:12.551Z,4.17
2019-02-24T11:42:40.985Z,5.37
2019-02-24T11:45:09.937Z,4.30
2019-02-24T11:47:38.364Z,3.70
2019-02-24T11:50:11.530Z,3.98
2019-02-24T11:52:39.997Z,4.33
2019-02-24T11:55:09.793Z,4.90
2019-02-24T11:57:38.622Z,4.17
2019-02-24T12:00:12.401Z,4.33
2019-02-24T12:02:41.822Z,4.10
2019-02-24T12:05:10.665Z,4.72
2019-02-24T12:07:39.409Z,3.75
2019-02-24T12:10:09.995Z,3.47
2019-02-24T12:12:38.424Z,3.30
2019-02-24T12:15:14.161Z,2.55
2019-02-24T12:17:42.703Z,2.85
2019-02-24T12:20:12.094Z,2.62
2019-02-24T12:22:40.517Z,2.70
2019-02-24T12:25:12.001Z,2.60
2019-02-24T12:27:40.486Z,2.22
2019-02-24T12:30:17.041Z,3.12
2019-02-24T12:32:45.619Z,2.72
2019-02-24T12:35:14.023Z,3.30
2019-02-24T12:37:42.416Z,2.75
2019-02-24T12:40:12.768Z,2.95
2019-02-24T12:42:41.207Z,2.67
2019-02-24T12:45:10.554Z,2.35
2019-02-24T12:47:39.153Z,1.90
2019-02-24T12:50:15.330Z,2.17
2019-02-24T12:52:43.761Z,2.50
2019-02-24T12:55:12.313Z,2.15
2019-02-24T12:57:41.641Z,2.00
2019-02-24T13:00:15.038Z,3.45
2019-02-24T13:02:43.496Z,2.10
2019-02-24T13:05:11.941Z,2.90
2019-02-24T13:07:40.353Z,2.15
2019-02-24T13:10:11.900Z,2.25
2019-02-24T13:12:40.610Z,2.02
2019-02-24T13:15:09.014Z,1.85
2019-02-24T13:17:37.481Z,2.05
2019-02-24T13:20:11.109Z,2.02
2019-02-24T13:22:39.589Z,2.37
2019-02-24T13:25:10.041Z,2.90
2019-02-24T13:27:38.468Z,2.90
2019-02-24T13:30:09.886Z,2.98
2019-02-24T13:32:38.369Z,2.55
2019-02-24T13:35:08.411Z,2.62
2019-02-24T13:37:36.805Z,2.22
2019-02-24T13:40:08.356Z,2.50
2019-02-24T13:42:36.825Z,2.80
2019-02-24T13:45:11.287Z,2.52
2019-02-24T13:47:39.714Z,1.70
2019-02-24T13:50:08.195Z,2.20
2019-02-24T13:52:36.629Z,2.30
2019-02-24T13:55:07.830Z,2.02
2019-02-24T13:57:36.257Z,4.08
2019-02-24T14:00:08.342Z,2.70
2019-02-24T14:02:36.755Z,2.37
2019-02-24T14:05:06.637Z,2.75
2019-02-24T14:07:35.115Z,2.05
2019-02-24T14:10:04.270Z,2.50
2019-02-24T14:12:32.706Z,1.82
2019-02-24T14:15:01.123Z,2.52
2019-02-24T14:17:29.634Z,2.42
2019-02-24T14:19:59.892Z,2.60
2019-02-24T14:22:28.259Z,2.45
2019-02-24T14:24:56.658Z,2.40
2019-02-24T14:27:25.066Z,2.45
2019-02-24T14:29:53.766Z,2.42
2019-02-24T14:32:22.213Z,2.70
2019-02-24T14:34:50.613Z,2.95
2019-02-24T14:37:19.025Z,1.70
2019-02-24T14:39:47.420Z,2.40
2019-02-24T14:42:15.830Z,1.85
2019-02-24T14:44:44.231Z,2.25
2019-02-24T14:47:12.649Z,1.80
2019-02-24T14:49:41.069Z,2.60
2019-02-24T14:52:09.813Z,2.17
2019-02-24T14:54:38.306Z,2.83
2019-02-24T14:57:06.723Z,2.50
2019-02-24T14:59:35.122Z,2.33
2019-02-24T15:02:03.638Z,2.25
2019-02-24T15:04:32.033Z,2.05
2019-02-24T15:07:00.438Z,2.45
2019-02-24T15:09:29.186Z,2.77
2019-02-24T15:11:57.689Z,2.20
2019-02-24T15:14:26.100Z,3.85
2019-02-24T15:16:54.492Z,2.92
2019-02-24T15:19:22.929Z,2.80
2019-02-24T15:21:51.338Z,2.42
2019-02-24T15:24:19.745Z,2.42
2019-02-24T15:26:48.145Z,2.40
2019-02-24T15:29:16.555Z,2.00
2019-02-24T15:31:46.730Z,2.25
2019-02-24T15:34:15.106Z,3.20
2019-02-24T15:36:43.516Z,2.50
2019-02-24T15:39:12.102Z,2.40
2019-02-24T15:41:40.585Z,3.05
2019-02-24T15:44:10.156Z,2.50
2019-02-24T15:46:38.665Z,2.58
2019-02-24T15:49:07.091Z,2.80
2019-02-24T15:51:35.528Z,2.80
2019-02-24T15:54:04.031Z,2.85
2019-02-24T15:56:32.506Z,2.80
2019-02-24T15:59:00.969Z,2.60
2019-02-24T16:01:29.361Z,3.37
2019-02-24T16:03:57.780Z,2.80
2019-02-24T16:06:26.185Z,2.90
2019-02-24T16:08:54.721Z,2.40
2019-02-24T16:11:23.145Z,2.70
2019-02-24T16:13:51.889Z,2.80
2019-02-24T16:16:20.365Z,2.58
2019-02-24T16:18:48.837Z,2.75
2019-02-24T16:21:17.241Z,2.67
2019-02-24T16:23:45.665Z,2.83
2019-02-24T16:26:14.065Z,2.85
2019-02-24T16:28:42.482Z,3.00
2019-02-24T16:31:10.939Z,3.52
2019-02-24T16:33:39.443Z,3.15
2019-02-24T16:36:07.890Z,3.40
2019-02-24T16:38:36.594Z,2.87
2019-02-24T16:41:05.022Z,3.37
2019-02-24T16:43:33.439Z,3.52
2019-02-24T16:46:01.833Z,3.12
2019-02-24T16:48:30.252Z,3.58
2019-02-24T16:50:58.677Z,3.42
2019-02-24T16:53:27.078Z,3.42
2019-02-24T16:55:55.509Z,3.37
2019-02-24T16:58:24.061Z,3.80
2019-02-24T17:00:52.511Z,5.80
2019-02-24T17:03:20.913Z,3.75
2019-02-24T17:05:49.337Z,3.50
2019-02-24T17:08:17.756Z,4.10
2019-02-24T17:10:46.185Z,3.65
2019-02-24T17:13:14.591Z,3.08
2019-02-24T17:15:43.028Z,4.75
2019-02-24T17:18:11.523Z,4.30
2019-02-24T17:20:39.973Z,5.12
2019-02-24T17:23:08.537Z,5.62
2019-02-24T17:25:37.029Z,4.97
2019-02-24T17:28:05.454Z,4.30
2019-02-24T17:30:33.873Z,4.50
2019-02-24T17:33:02.273Z,4.80
2019-02-24T17:35:31.065Z,4.85
2019-02-24T17:37:59.537Z,4.60
2019-02-24T17:40:28.553Z,4.75
2019-02-24T17:42:57.138Z,5.65
2019-02-24T17:45:25.782Z,4.08
2019-02-24T17:47:54.287Z,4.17
2019-02-24T17:50:23.010Z,3.75
2019-02-24T17:52:51.429Z,4.00
2019-02-24T17:55:20.349Z,4.72
2019-02-24T17:57:48.791Z,3.30
2019-02-24T18:00:21.769Z,4.22
2019-02-24T18:02:50.200Z,3.33
2019-02-24T18:05:18.645Z,3.00
2019-02-24T18:07:47.055Z,3.60
2019-02-24T18:10:15.638Z,3.77
2019-02-24T18:12:44.038Z,4.10
2019-02-24T18:15:12.921Z,3.83
2019-02-24T18:17:41.356Z,4.75
2019-02-24T18:20:17.912Z,5.03
2019-02-24T18:22:46.386Z,4.12
2019-02-24T18:25:14.792Z,4.50
2019-02-24T18:27:43.220Z,4.10
2019-02-24T18:30:28.107Z,4.25
2019-02-24T18:32:56.509Z,3.55
2019-02-24T18:35:24.926Z,3.33
2019-02-24T18:37:53.329Z,3.90
2019-02-24T18:40:21.754Z,4.83
2019-02-24T18:42:59.371Z,11.75
2019-02-24T18:45:20.401Z,6.45
2019-02-24T18:47:49.864Z,6.83
2019-02-24T18:50:19.328Z,6.42
2019-02-24T18:52:47.886Z,5.70
2019-02-24T18:55:16.290Z,5.08
2019-02-24T18:57:44.988Z,5.95
2019-02-24T19:00:21.749Z,8.80
2019-02-24T19:02:50.175Z,7.65
2019-02-24T19:05:18.616Z,6.58
2019-02-24T19:07:47.049Z,6.85
2019-02-24T19:10:21.332Z,7.12
2019-02-24T19:12:50.017Z,8.15
2019-02-24T19:15:24.847Z,8.98
2019-02-24T19:17:53.344Z,7.87
2019-02-24T19:20:22.897Z,8.28
2019-02-24T19:22:51.298Z,7.65
2019-02-24T19:25:19.764Z,7.85
2019-02-24T19:27:48.317Z,7.58
2019-02-24T19:30:22.577Z,6.90
2019-02-24T19:32:50.997Z,8.05
2019-02-24T19:35:19.959Z,7.37
2019-02-24T19:37:48.865Z,7.00
2019-02-24T19:40:19.961Z,9.08
2019-02-24T19:42:48.727Z,8.60
2019-02-24T19:45:26.973Z,6.90
2019-02-24T19:47:55.406Z,8.78
2019-02-24T19:50:24.375Z,7.80
2019-02-24T19:52:52.864Z,7.85
2019-02-24T19:55:21.262Z,7.60
2019-02-24T19:57:50.613Z,8.68
2019-02-24T20:00:25.857Z,8.98
2019-02-24T20:02:54.274Z,8.85
2019-02-24T20:05:22.895Z,8.98
2019-02-24T20:07:51.357Z,9.15
2019-02-24T20:10:24.835Z,9.60
2019-02-24T20:12:53.346Z,9.00
2019-02-24T20:15:21.933Z,8.93
2019-02-24T20:17:50.348Z,9.00
2019-02-24T20:20:18.980Z,8.78
2019-02-24T20:22:47.394Z,9.83
2019-02-24T20:25:20.671Z,9.78
2019-02-24T20:27:49.088Z,9.85
2019-02-24T20:30:28.592Z,10.20
2019-02-24T20:32:57.007Z,9.80
2019-02-24T20:35:25.474Z,9.03
2019-02-24T20:37:53.888Z,10.75
2019-02-24T20:40:22.362Z,11.78
2019-02-24T20:42:50.789Z,11.83
2019-02-24T20:45:20.638Z,12.73
2019-02-24T20:47:49.151Z,14.43
2019-02-24T20:50:19.694Z,17.15
2019-02-24T20:52:48.151Z,14.30
2019-02-24T20:55:16.573Z,16.62
2019-02-24T20:57:44.985Z,19.45
2019-02-24T21:00:17.118Z,16.77
2019-02-24T21:02:45.526Z,19.60
2019-02-24T21:05:13.936Z,17.15
2019-02-24T21:07:42.356Z,17.80
2019-02-24T21:10:11.800Z,19.50
2019-02-24T21:12:41.835Z,17.30
2019-02-24T21:15:14.241Z,16.82
2019-02-24T21:17:42.675Z,16.20
2019-02-24T21:20:16.806Z,34.40
2019-02-24T21:22:45.241Z,17.23
2019-02-24T21:25:13.681Z,18.35
2019-02-24T21:27:42.089Z,19.57
2019-02-24T21:30:15.807Z,17.75
2019-02-24T21:32:44.296Z,17.25
2019-02-24T21:35:13.261Z,18.15
2019-02-24T21:37:41.662Z,15.05
2019-02-24T21:40:12.921Z,16.30
2019-02-24T21:42:41.343Z,14.85
2019-02-24T21:45:12.669Z,15.30
2019-02-24T21:47:41.080Z,15.85
2019-02-24T21:50:12.024Z,17.62
2019-02-24T21:52:40.437Z,17.00
2019-02-24T21:55:09.890Z,18.35
2019-02-24T21:57:38.302Z,18.32
2019-02-24T22:00:18.069Z,18.42
2019-02-24T22:02:46.557Z,25.43
2019-02-24T22:05:15.054Z,31.68
2019-02-24T22:07:43.464Z,8.43
2019-02-24T22:10:13.443Z,8.98
2019-02-24T22:12:41.956Z,9.35
2019-02-24T22:15:13.538Z,10.78
2019-02-24T22:17:41.965Z,8.75
2019-02-24T22:20:11.229Z,8.55
2019-02-24T22:22:39.742Z,8.85
2019-02-24T22:25:10.779Z,8.68
2019-02-24T22:27:39.181Z,9.33
2019-02-24T22:30:16.081Z,11.50
2019-02-24T22:32:44.515Z,9.50
2019-02-24T22:35:13.010Z,11.38
2019-02-24T22:37:41.529Z,9.80
2019-02-24T22:40:13.827Z,10.60
2019-02-24T22:42:43.480Z,11.15
2019-02-24T22:45:16.730Z,10.15
2019-02-24T22:47:45.232Z,12.37
2019-02-24T22:50:14.409Z,10.00
2019-02-24T22:52:42.939Z,9.88
2019-02-24T22:55:14.081Z,9.30
2019-02-24T22:57:42.868Z,10.82
2019-02-24T23:00:30.693Z,11.20
2019-02-24T23:02:59.266Z,9.30
2019-02-24T23:05:27.695Z,11.30
2019-02-24T23:07:56.150Z,10.90
2019-02-24T23:10:24.625Z,9.88
2019-02-24T23:12:53.038Z,10.05
2019-02-24T23:15:21.902Z,11.25
2019-02-24T23:17:50.306Z,11.65
2019-02-24T23:20:18.722Z,11.18
2019-02-24T23:22:47.120Z,11.75
2019-02-24T23:25:15.545Z,11.43
2019-02-24T23:27:43.979Z,13.25
2019-02-24T23:30:12.530Z,59.83
2019-02-24T23:32:40.925Z,11.45
2019-02-24T23:35:09.527Z,9.08
2019-02-24T23:37:37.956Z,9.25
2019-02-24T23:40:08.618Z,9.30
2019-02-24T23:42:37.033Z,7.85
2019-02-24T23:45:11.249Z,10.72
2019-02-24T23:47:39.725Z,9.60
2019-02-24T23:50:12.606Z,10.30
2019-02-24T23:52:41.015Z,10.85
2019-02-24T23:55:11.182Z,10.25
2019-02-24T23:57:39.619Z,10.90
